Time;durP1;ratioP1;P1;durP2;ratioP2;P2;SDS_P1;SDS_P2;PMS_P1;PMS_P2;Temp;Humidity;BMP_temperature;BMP_pressure;BME280_temperature;BME280_humidity;BME280_pressure;Samples;Min_cycle;Max_cycle;Signal;HPM_P1;HPM_P2
2023/01/07 00:01:00;;;;;;;3.40;1.43;;;12.20;99.90;;;;;;5134429;27;20972;-61
2023/01/07 00:03:27;;;;;;;0.90;0.90;;;12.20;99.90;;;;;;5134712;27;20531;-60
2023/01/07 00:05:58;;;;;;;1.43;1.33;;;12.10;99.90;;;;;;5135047;27;20584;-60
2023/01/07 00:08:25;;;;;;;1.43;1.20;;;12.20;99.90;;;;;;5135022;27;20466;-60
2023/01/07 00:10:53;;;;;;;1.63;1.23;;;12.20;99.90;;;;;;5135018;27;20771;-60
2023/01/07 00:13:20;;;;;;;2.20;1.23;;;12.20;99.90;;;;;;5134958;27;20453;-60
2023/01/07 00:15:46;;;;;;;1.10;1.00;;;12.20;99.90;;;;;;5134881;27;20446;-60
2023/01/07 00:18:13;;;;;;;3.03;0.97;;;12.20;99.90;;;;;;5134960;27;20442;-60
2023/01/07 00:20:40;;;;;;;2.30;1.20;;;12.30;99.90;;;;;;5134977;27;20763;-60
2023/01/07 00:23:06;;;;;;;1.90;0.90;;;12.30;99.90;;;;;;5134734;27;20495;-60
2023/01/07 00:25:33;;;;;;;2.97;1.77;;;12.30;99.90;;;;;;5134831;27;20442;-59
2023/01/07 00:28:01;;;;;;;3.17;1.00;;;12.30;99.90;;;;;;5134755;27;20484;-60
2023/01/07 00:30:28;;;;;;;1.00;0.90;;;12.40;99.90;;;;;;5134802;27;20449;-60
2023/01/07 00:33:03;;;;;;;2.40;1.20;;;12.40;99.90;;;;;;5134593;27;20473;-60
2023/01/07 00:35:30;;;;;;;2.63;1.30;;;12.30;99.90;;;;;;5134716;27;20550;-60
2023/01/07 00:37:57;;;;;;;4.93;1.17;;;12.40;99.90;;;;;;5134670;27;20449;-60
2023/01/07 00:40:24;;;;;;;1.93;0.90;;;12.40;99.90;;;;;;5134179;27;20928;-60
2023/01/07 00:42:53;;;;;;;1.97;0.90;;;12.40;99.90;;;;;;5134314;27;20477;-60
2023/01/07 00:45:22;;;;;;;1.17;0.80;;;12.40;99.90;;;;;;5134373;27;20964;-60
2023/01/07 00:47:52;;;;;;;1.80;1.00;;;12.40;99.90;;;;;;5134459;27;20449;-60
2023/01/07 00:50:19;;;;;;;1.63;1.13;;;12.40;99.90;;;;;;5134549;27;20866;-60
2023/01/07 00:52:46;;;;;;;0.80;0.80;;;12.40;99.90;;;;;;5134461;27;20481;-60
2023/01/07 00:55:13;;;;;;;1.10;1.00;;;12.30;99.90;;;;;;5134498;28;20434;-60
2023/01/07 00:57:40;;;;;;;3.13;1.03;;;12.30;99.90;;;;;;5134428;28;20497;-59
2023/01/07 01:00:08;;;;;;;1.10;1.00;;;12.40;99.90;;;;;;5134417;28;20516;-59
2023/01/07 01:02:36;;;;;;;1.00;1.00;;;12.40;99.90;;;;;;5134366;28;20474;-60
2023/01/07 01:05:03;;;;;;;1.60;0.80;;;12.40;99.90;;;;;;5134270;28;20842;-60
2023/01/07 01:07:30;;;;;;;1.50;0.97;;;12.30;99.90;;;;;;5134048;28;20913;-60
2023/01/07 01:09:57;;;;;;;2.93;1.17;;;12.40;99.90;;;;;;5134944;28;20488;-60
2023/01/07 01:12:23;;;;;;;4.30;0.60;;;12.40;99.90;;;;;;5134615;28;20489;-60
2023/01/07 01:14:50;;;;;;;10.23;1.43;;;12.40;99.90;;;;;;5134374;28;20434;-60
2023/01/07 01:17:17;;;;;;;4.40;0.97;;;12.40;99.90;;;;;;5134378;28;20457;-60
2023/01/07 01:19:45;;;;;;;1.03;0.93;;;12.40;99.90;;;;;;5135090;28;20446;-60
2023/01/07 01:22:11;;;;;;;1.13;1.03;;;12.40;99.90;;;;;;5133712;28;20457;-59
2023/01/07 01:24:38;;;;;;;0.80;0.80;;;12.40;99.90;;;;;;5134258;28;20438;-60
2023/01/07 01:27:05;;;;;;;0.77;0.70;;;12.40;99.90;;;;;;5133875;28;20984;-59
2023/01/07 01:29:31;;;;;;;0.90;0.70;;;12.40;99.90;;;;;;5133959;28;20481;-60
2023/01/07 01:31:59;;;;;;;1.73;0.90;;;12.40;99.90;;;;;;5133849;28;20467;-60
2023/01/07 01:34:26;;;;;;;3.90;0.90;;;12.40;99.90;;;;;;5133791;28;20450;-60
2023/01/07 01:36:54;;;;;;;0.83;0.80;;;12.40;99.90;;;;;;5134331;28;20496;-60
2023/01/07 01:39:21;;;;;;;0.93;0.83;;;12.40;99.90;;;;;;5133610;28;20908;-60
2023/01/07 01:41:48;;;;;;;2.73;0.60;;;12.50;99.90;;;;;;5134025;28;20469;-60
2023/01/07 01:44:39;;;;;;;2.60;0.80;;;12.50;99.90;;;;;;5134188;28;20461;-60
2023/01/07 01:47:13;;;;;;;1.17;0.73;;;12.50;99.90;;;;;;5134175;28;20437;-60
2023/01/07 01:49:45;;;;;;;1.33;0.90;;;12.50;99.90;;;;;;5134026;28;20462;-60
2023/01/07 01:52:16;;;;;;;10.90;1.23;;;12.50;99.90;;;;;;5136259;27;20476;-60
2023/01/07 01:54:48;;;;;;;1.57;0.87;;;12.50;99.90;;;;;;5138019;27;20440;-60
2023/01/07 01:57:17;;;;;;;3.13;0.87;;;12.50;99.90;;;;;;5137895;27;20430;-60
2023/01/07 01:59:48;;;;;;;1.57;0.87;;;12.50;99.90;;;;;;5138089;27;20469;-60
2023/01/07 02:02:19;;;;;;;2.43;0.90;;;12.50;99.90;;;;;;5138060;27;20474;-60
2023/01/07 02:04:46;;;;;;;2.30;0.93;;;12.50;99.90;;;;;;5137981;27;20815;-60
2023/01/07 02:07:17;;;;;;;3.03;0.80;;;12.50;99.90;;;;;;5137883;27;20457;-60
2023/01/07 02:09:44;;;;;;;3.70;0.70;;;12.50;99.90;;;;;;5137968;27;20481;-60
2023/01/07 02:12:19;;;;;;;1.60;0.90;;;12.60;99.90;;;;;;5138006;27;20493;-60
2023/01/07 02:15:02;;;;;;;0.80;0.80;;;12.50;99.90;;;;;;5138405;27;20921;-60
2023/01/07 02:17:54;;;;;;;1.70;1.00;;;12.60;99.90;;;;;;5138886;27;20445;-60
2023/01/07 02:20:47;;;;;;;2.37;0.77;;;12.60;99.90;;;;;;5138706;27;20425;-59
2023/01/07 02:24:02;;;;;;;2.90;1.00;;;12.50;99.90;;;;;;5139189;27;20426;-60
2023/01/07 02:27:15;;;;;;;4.20;1.10;;;12.50;99.90;;;;;;5139241;27;20435;-60
2023/01/07 02:30:29;;;;;;;3.03;0.90;;;12.50;99.90;;;;;;5138669;27;20493;-59
2023/01/07 02:33:33;;;;;;;1.10;0.70;;;12.50;99.90;;;;;;5140275;27;21056;-60
2023/01/07 02:36:20;;;;;;;1.53;0.77;;;12.40;99.90;;;;;;5141021;27;20453;-60
2023/01/07 02:38:59;;;;;;;1.90;1.20;;;12.40;99.90;;;;;;5141778;27;20433;-60
2023/01/07 02:41:33;;;;;;;2.33;1.03;;;12.40;99.90;;;;;;5141031;27;20509;-60
2023/01/07 02:44:04;;;;;;;1.50;0.90;;;12.40;99.90;;;;;;5141019;27;20431;-60
2023/01/07 02:46:37;;;;;;;1.00;1.00;;;12.40;99.90;;;;;;5140082;27;20439;-60
2023/01/07 02:49:08;;;;;;;2.93;0.93;;;12.40;99.90;;;;;;5138501;27;20470;-60
2023/01/07 02:51:36;;;;;;;1.30;0.90;;;12.40;99.90;;;;;;5136696;27;20505;-60
2023/01/07 02:54:05;;;;;;;1.03;0.70;;;12.40;99.90;;;;;;5136616;27;20512;-60
2023/01/07 02:56:43;;;;;;;1.23;0.77;;;12.40;99.90;;;;;;5136572;27;20479;-60
2023/01/07 02:59:30;;;;;;;0.77;0.77;;;12.30;99.90;;;;;;5136561;27;20422;-60
2023/01/07 03:02:26;;;;;;;1.67;0.90;;;12.40;99.90;;;;;;5135977;27;20516;-60
2023/01/07 03:05:16;;;;;;;1.50;1.17;;;12.40;99.90;;;;;;5136389;27;20441;-60
2023/01/07 03:08:00;;;;;;;3.40;0.97;;;12.30;99.90;;;;;;5136061;27;20800;-60
2023/01/07 03:10:32;;;;;;;1.37;0.77;;;12.30;99.90;;;;;;5136223;27;20465;-60
2023/01/07 03:13:04;;;;;;;1.77;0.70;;;12.30;99.90;;;;;;5136157;27;20832;-60
2023/01/07 03:15:36;;;;;;;3.47;0.80;;;12.30;99.90;;;;;;5136241;27;20437;-60
2023/01/07 03:18:08;;;;;;;1.77;0.70;;;12.30;99.90;;;;;;5136198;27;20427;-60
2023/01/07 03:20:38;;;;;;;1.40;0.70;;;12.30;99.90;;;;;;5136064;27;20433;-60
2023/01/07 03:23:09;;;;;;;2.67;0.67;;;12.20;99.90;;;;;;5135911;27;20520;-60
2023/01/07 03:25:40;;;;;;;0.87;0.60;;;12.20;99.90;;;;;;5135978;27;20450;-60
2023/01/07 03:28:09;;;;;;;1.63;0.80;;;12.30;99.90;;;;;;5136105;27;20442;-60
2023/01/07 03:30:37;;;;;;;2.20;0.70;;;12.20;99.90;;;;;;5135948;27;20477;-60
2023/01/07 03:33:09;;;;;;;6.17;1.43;;;12.20;99.90;;;;;;5135848;27;20476;-60
2023/01/07 03:35:40;;;;;;;1.37;0.93;;;12.10;99.90;;;;;;5135838;27;20449;-60
2023/01/07 03:38:09;;;;;;;0.90;0.60;;;12.10;99.90;;;;;;5135759;27;20441;-60
2023/01/07 03:40:36;;;;;;;1.20;1.10;;;12.10;99.90;;;;;;5135526;27;20454;-60
2023/01/07 03:43:03;;;;;;;1.37;0.87;;;12.10;99.90;;;;;;5135682;27;20465;-60
2023/01/07 03:45:30;;;;;;;1.40;0.80;;;12.20;99.90;;;;;;5135332;27;20479;-60
2023/01/07 03:47:57;;;;;;;1.83;0.90;;;12.10;99.90;;;;;;5135197;27;20452;-60
2023/01/07 03:50:24;;;;;;;0.70;0.50;;;12.10;99.90;;;;;;5135388;27;20478;-60
2023/01/07 03:52:52;;;;;;;1.53;0.83;;;12.10;99.90;;;;;;5135313;27;20493;-60
2023/01/07 03:55:19;;;;;;;1.60;0.80;;;12.10;99.90;;;;;;5135393;27;20496;-60
2023/01/07 03:57:46;;;;;;;1.07;0.80;;;12.10;99.90;;;;;;5135273;27;20442;-59
2023/01/07 04:00:14;;;;;;;0.90;0.90;;;12.10;99.90;;;;;;5135401;27;20426;-60
2023/01/07 04:02:41;;;;;;;1.77;0.53;;;12.00;99.90;;;;;;5135159;27;20503;-60
2023/01/07 04:05:09;;;;;;;1.47;0.70;;;12.00;99.90;;;;;;5135262;27;20457;-60
2023/01/07 04:07:36;;;;;;;0.93;0.83;;;12.00;99.90;;;;;;5135193;27;20487;-60
2023/01/07 04:10:05;;;;;;;0.67;0.67;;;11.90;99.90;;;;;;5135032;27;20490;-60
2023/01/07 04:12:32;;;;;;;0.80;0.77;;;11.90;99.90;;;;;;5135034;27;20478;-60
2023/01/07 04:14:59;;;;;;;2.13;0.77;;;11.90;99.90;;;;;;5134169;27;20446;-60
2023/01/07 04:17:25;;;;;;;1.63;1.10;;;11.90;99.90;;;;;;5135790;27;20449;-60
2023/01/07 04:19:52;;;;;;;1.47;0.83;;;11.90;99.90;;;;;;5134652;27;20828;-60
2023/01/07 04:22:19;;;;;;;1.00;0.90;;;11.90;99.90;;;;;;5134779;27;20498;-60
2023/01/07 04:24:46;;;;;;;6.73;0.90;;;11.90;99.90;;;;;;5134990;27;20447;-61
2023/01/07 04:27:14;;;;;;;0.90;0.87;;;11.90;99.90;;;;;;5134864;27;20445;-61
2023/01/07 04:29:40;;;;;;;0.83;0.80;;;11.90;99.90;;;;;;5134756;27;20473;-60
2023/01/07 04:32:07;;;;;;;1.20;1.10;;;11.80;99.90;;;;;;5134785;27;20466;-60
2023/01/07 04:34:34;;;;;;;3.50;1.50;;;11.90;99.90;;;;;;5134454;27;20930;-60
2023/01/07 04:37:00;;;;;;;2.20;1.00;;;11.90;99.90;;;;;;5134831;27;20442;-60
2023/01/07 04:39:27;;;;;;;2.10;0.90;;;11.90;99.90;;;;;;5134494;27;20461;-60
2023/01/07 04:41:54;;;;;;;4.70;1.20;;;11.90;99.90;;;;;;5134669;27;20470;-61
2023/01/07 04:44:22;;;;;;;5.20;1.53;;;12.00;99.90;;;;;;5134671;27;20485;-60
2023/01/07 04:46:49;;;;;;;3.07;1.10;;;11.90;99.90;;;;;;5134594;27;20461;-60
2023/01/07 04:49:15;;;;;;;3.67;1.00;;;11.90;99.90;;;;;;5134283;27;21076;-60
2023/01/07 04:51:42;;;;;;;1.07;0.97;;;11.90;99.90;;;;;;5134251;27;20976;-60
2023/01/07 04:54:09;;;;;;;2.50;0.87;;;11.90;99.90;;;;;;5134682;27;20450;-60
2023/01/07 04:56:36;;;;;;;2.00;1.17;;;11.90;99.90;;;;;;5134155;28;20964;-60
2023/01/07 04:59:02;;;;;;;1.63;1.00;;;11.90;99.90;;;;;;5134631;28;20450;-60
2023/01/07 05:01:31;;;;;;;4.37;1.40;;;11.90;99.90;;;;;;5134539;28;20466;-60
2023/01/07 05:03:58;;;;;;;1.87;1.10;;;11.90;99.90;;;;;;5134601;28;20448;-60
2023/01/07 05:06:25;;;;;;;1.93;1.80;;;11.90;99.90;;;;;;5135095;28;20441;-60
2023/01/07 05:08:52;;;;;;;1.13;1.13;;;11.90;99.90;;;;;;5134351;28;20454;-60
2023/01/07 05:11:20;;;;;;;2.60;1.10;;;11.80;99.90;;;;;;5134297;28;20489;-60
2023/01/07 05:13:47;;;;;;;2.00;1.30;;;11.90;99.90;;;;;;5134121;28;20946;-60
2023/01/07 05:16:14;;;;;;;2.03;1.17;;;11.80;99.90;;;;;;5134117;28;20930;-60
2023/01/07 05:18:42;;;;;;;2.10;1.23;;;11.80;99.90;;;;;;5134200;28;20946;-60
2023/01/07 05:21:11;;;;;;;1.57;1.20;;;11.80;99.90;;;;;;5134267;28;20462;-60
2023/01/07 05:23:38;;;;;;;0.70;0.70;;;11.70;99.90;;;;;;5134274;28;20808;-60
2023/01/07 05:26:05;;;;;;;1.70;1.07;;;11.70;99.90;;;;;;5136113;27;20461;-60
2023/01/07 05:28:32;;;;;;;2.63;1.17;;;11.70;99.90;;;;;;5138276;27;20453;-60
2023/01/07 05:30:59;;;;;;;1.13;1.03;;;11.70;99.90;;;;;;5138081;27;20813;-60
2023/01/07 05:33:26;;;;;;;1.50;1.20;;;11.70;99.60;;;;;;5138298;27;20474;-60
2023/01/07 05:35:54;;;;;;;1.27;0.80;;;11.70;99.50;;;;;;5138249;27;20456;-60
2023/01/07 05:38:21;;;;;;;2.20;1.00;;;11.70;99.60;;;;;;5138283;27;20450;-61
2023/01/07 05:40:48;;;;;;;1.80;1.10;;;11.80;99.50;;;;;;5137888;27;20473;-61
2023/01/07 05:43:15;;;;;;;1.30;1.20;;;11.80;99.40;;;;;;5138121;27;20452;-60
2023/01/07 05:45:44;;;;;;;2.90;1.00;;;11.70;99.30;;;;;;5138171;27;20860;-60
2023/01/07 05:48:10;;;;;;;2.40;1.30;;;11.70;99.30;;;;;;5138040;27;20491;-61
2023/01/07 05:50:37;;;;;;;1.80;1.07;;;11.70;99.20;;;;;;5137775;27;20477;-60
2023/01/07 05:53:05;;;;;;;5.80;1.40;;;11.70;99.40;;;;;;5137702;27;20461;-61
2023/01/07 05:55:32;;;;;;;6.20;1.33;;;11.70;99.30;;;;;;5137776;27;20477;-60
2023/01/07 05:57:58;;;;;;;4.30;1.00;;;11.70;99.30;;;;;;5137542;27;20458;-60
2023/01/07 06:00:25;;;;;;;6.13;1.00;;;11.70;99.30;;;;;;5137695;27;20844;-60
2023/01/07 06:02:52;;;;;;;3.03;0.90;;;11.60;99.10;;;;;;5137650;27;20477;-60
2023/01/07 06:05:18;;;;;;;1.60;1.40;;;11.60;99.30;;;;;;5137623;27;20461;-60
2023/01/07 06:07:46;;;;;;;3.07;1.10;;;11.60;99.60;;;;;;5137645;27;20816;-60
2023/01/07 06:10:14;;;;;;;1.80;1.43;;;11.50;99.70;;;;;;5137214;27;21011;-60
2023/01/07 06:12:41;;;;;;;1.67;1.40;;;11.50;99.90;;;;;;5137421;27;20462;-60
2023/01/07 06:15:08;;;;;;;2.20;1.20;;;11.50;99.80;;;;;;5137169;27;20445;-60
2023/01/07 06:17:35;;;;;;;1.93;1.40;;;11.60;99.70;;;;;;5137419;27;20446;-60
2023/01/07 06:20:02;;;;;;;3.47;1.43;;;11.60;99.70;;;;;;5137308;27;20442;-61
2023/01/07 06:22:28;;;;;;;5.20;1.43;;;11.60;99.70;;;;;;5137202;27;20477;-60
2023/01/07 06:24:55;;;;;;;4.47;1.50;;;11.60;99.90;;;;;;5137219;27;20450;-60
2023/01/07 06:27:23;;;;;;;1.67;1.20;;;11.50;99.90;;;;;;5137133;27;20447;-60
2023/01/07 06:29:50;;;;;;;1.93;1.23;;;11.50;99.90;;;;;;5137156;27;20887;-60
2023/01/07 06:32:16;;;;;;;2.27;1.90;;;11.60;99.90;;;;;;5136932;27;20470;-60
2023/01/07 06:34:43;;;;;;;3.90;1.20;;;11.60;99.90;;;;;;5137039;27;20445;-60
2023/01/07 06:37:10;;;;;;;1.97;1.60;;;11.60;99.90;;;;;;5135903;27;20947;-60
2023/01/07 06:39:37;;;;;;;3.03;1.80;;;11.60;99.90;;;;;;5136817;27;20462;-60
2023/01/07 06:42:03;;;;;;;1.40;1.30;;;11.50;99.90;;;;;;5136980;27;20828;-60
2023/01/07 06:44:31;;;;;;;2.93;2.10;;;11.50;99.80;;;;;;5136943;27;20461;-60
2023/01/07 06:46:58;;;;;;;2.50;1.47;;;11.60;99.90;;;;;;5136829;27;20804;-60
2023/01/07 06:49:25;;;;;;;2.03;1.43;;;11.60;99.90;;;;;;5136769;27;20453;-60
2023/01/07 06:51:53;;;;;;;1.70;1.17;;;11.60;99.90;;;;;;5136595;27;20485;-60
2023/01/07 06:54:20;;;;;;;1.60;1.50;;;11.60;99.80;;;;;;5136324;27;20467;-60
2023/01/07 06:56:47;;;;;;;1.80;1.70;;;11.60;99.90;;;;;;5136534;27;20450;-60
2023/01/07 06:59:13;;;;;;;3.43;1.60;;;11.60;99.90;;;;;;5137130;27;20495;-60
2023/01/07 07:01:41;;;;;;;1.90;1.20;;;11.60;99.80;;;;;;5136506;27;20825;-60
2023/01/07 07:04:08;;;;;;;2.03;1.37;;;11.60;99.80;;;;;;5136506;27;20446;-60
2023/01/07 07:06:35;;;;;;;1.63;1.20;;;11.50;99.90;;;;;;5136264;27;20964;-60
2023/01/07 07:09:02;;;;;;;1.60;1.10;;;11.50;99.90;;;;;;5136331;27;20457;-60
2023/01/07 07:11:28;;;;;;;1.37;1.27;;;11.50;99.90;;;;;;5136360;27;20484;-60
2023/01/07 07:13:55;;;;;;;2.30;1.30;;;11.60;99.90;;;;;;5136466;27;20427;-60
2023/01/07 07:16:22;;;;;;;3.23;1.43;;;11.60;99.70;;;;;;5136216;27;20453;-60
2023/01/07 07:18:51;;;;;;;2.33;1.13;;;11.60;99.60;;;;;;5135761;27;20549;-60
2023/01/07 07:21:17;;;;;;;2.47;1.07;;;11.60;99.50;;;;;;5136096;27;20458;-60
2023/01/07 07:23:44;;;;;;;1.73;1.23;;;11.60;99.60;;;;;;5136110;27;20449;-60
2023/01/07 07:26:11;;;;;;;1.53;1.13;;;11.60;99.50;;;;;;5136029;27;20438;-60
2023/01/07 07:28:38;;;;;;;6.53;1.70;;;11.60;99.50;;;;;;5135938;27;20823;-61
2023/01/07 07:31:05;;;;;;;1.80;1.47;;;11.60;99.50;;;;;;5136414;27;20481;-60
2023/01/07 07:33:31;;;;;;;5.50;1.40;;;11.60;99.40;;;;;;5136272;27;20507;-60
2023/01/07 07:35:59;;;;;;;1.50;0.90;;;11.60;99.40;;;;;;5136022;27;20442;-60
2023/01/07 07:38:26;;;;;;;1.93;1.27;;;11.60;99.50;;;;;;5135926;27;20450;-60
2023/01/07 07:40:53;;;;;;;2.00;1.20;;;11.60;99.30;;;;;;5135288;27;20465;-60
2023/01/07 07:43:20;;;;;;;2.27;1.50;;;11.70;99.10;;;;;;5135813;27;20454;-60
2023/01/07 07:45:46;;;;;;;0.87;0.87;;;11.60;98.70;;;;;;5136815;27;20462;-61
2023/01/07 07:48:15;;;;;;;2.10;1.13;;;11.70;98.40;;;;;;5135027;27;20980;-60
2023/01/07 07:50:42;;;;;;;5.63;1.07;;;11.70;98.30;;;;;;5134749;27;20477;-60
2023/01/07 07:53:10;;;;;;;1.77;1.20;;;11.70;97.60;;;;;;5135403;27;20477;-61
2023/01/07 07:55:37;;;;;;;3.60;1.50;;;11.70;97.40;;;;;;5135753;27;20442;-60
2023/01/07 07:58:04;;;;;;;3.30;1.50;;;11.70;97.10;;;;;;5135384;27;20462;-59
2023/01/07 08:00:31;;;;;;;1.87;1.00;;;11.70;96.80;;;;;;5135545;27;20446;-59
2023/01/07 08:03:04;;;;;;;2.13;1.20;;;11.80;96.70;;;;;;5135458;27;20493;-59
2023/01/07 08:05:30;;;;;;;1.50;1.20;;;11.80;96.50;;;;;;5135236;27;20439;-59
2023/01/07 08:07:58;;;;;;;4.40;1.40;;;11.80;96.60;;;;;;5135183;27;20832;-60
2023/01/07 08:10:27;;;;;;;1.20;1.10;;;11.90;96.70;;;;;;5135394;27;20477;-60
2023/01/07 08:12:54;;;;;;;1.10;1.10;;;11.90;96.20;;;;;;5135075;27;20817;-60
2023/01/07 08:15:21;;;;;;;1.20;1.10;;;11.90;96.10;;;;;;5135535;27;20427;-60
2023/01/07 08:17:47;;;;;;;2.07;1.27;;;11.90;96.10;;;;;;5136082;27;20446;-60
2023/01/07 08:20:14;;;;;;;2.73;1.20;;;12.00;95.80;;;;;;5135274;27;20452;-60
2023/01/07 08:22:41;;;;;;;1.97;1.23;;;12.00;96.00;;;;;;5134994;27;20465;-60
2023/01/07 08:25:08;;;;;;;1.10;1.00;;;12.00;95.80;;;;;;5134824;27;20449;-60
2023/01/07 08:27:36;;;;;;;2.17;1.10;;;12.00;95.80;;;;;;5135323;27;20442;-60
2023/01/07 08:30:03;;;;;;;1.10;1.10;;;12.00;96.00;;;;;;5134937;27;20924;-60
2023/01/07 08:32:30;;;;;;;1.47;1.20;;;12.10;95.90;;;;;;5134971;27;20481;-60
2023/01/07 08:34:57;;;;;;;1.30;1.17;;;12.10;96.00;;;;;;5135022;27;20454;-60
2023/01/07 08:37:24;;;;;;;2.23;1.17;;;12.10;96.20;;;;;;5134485;27;20988;-60
2023/01/07 08:39:50;;;;;;;1.20;1.10;;;12.10;96.10;;;;;;5130083;27;20450;-61
2023/01/07 08:42:17;;;;;;;1.30;1.20;;;12.10;96.30;;;;;;5134054;27;20526;-60
2023/01/07 08:44:45;;;;;;;1.90;1.60;;;12.10;96.50;;;;;;5135119;27;20857;-60
2023/01/07 08:47:12;;;;;;;1.37;1.13;;;12.10;96.20;;;;;;5135156;27;20433;-60
2023/01/07 08:49:39;;;;;;;1.67;1.57;;;12.10;96.30;;;;;;5135191;27;20438;-60
2023/01/07 08:52:05;;;;;;;1.40;1.30;;;12.10;96.40;;;;;;5135149;27;20492;-60
2023/01/07 08:54:32;;;;;;;2.03;1.37;;;12.10;96.40;;;;;;5135908;27;20441;-60
2023/01/07 08:56:59;;;;;;;4.90;1.40;;;12.20;96.50;;;;;;5136626;28;20461;-60
2023/01/07 08:59:25;;;;;;;2.17;1.33;;;12.20;96.50;;;;;;5136940;28;20540;-60
2023/01/07 09:01:53;;;;;;;1.63;1.40;;;12.20;96.60;;;;;;5134710;27;20477;-60
2023/01/07 09:04:20;;;;;;;1.37;1.27;;;12.30;96.40;;;;;;5134481;28;20442;-60
2023/01/07 09:06:47;;;;;;;2.13;1.50;;;12.30;96.50;;;;;;5134288;28;20445;-60
2023/01/07 09:09:15;;;;;;;2.13;0.97;;;12.30;96.50;;;;;;5134329;28;20805;-60
2023/01/07 09:11:42;;;;;;;2.50;1.43;;;12.30;96.60;;;;;;5134655;28;20535;-61
2023/01/07 09:14:09;;;;;;;2.10;1.40;;;12.30;96.60;;;;;;5134602;28;20446;-60
2023/01/07 09:16:35;;;;;;;2.10;1.30;;;12.40;96.40;;;;;;5134350;28;20923;-60
2023/01/07 09:19:04;;;;;;;1.83;1.20;;;12.40;96.40;;;;;;5134938;28;20427;-60
2023/01/07 09:21:30;;;;;;;1.73;1.30;;;12.30;96.30;;;;;;5133817;28;20988;-60
2023/01/07 09:23:57;;;;;;;18.10;2.23;;;12.40;96.50;;;;;;5134221;28;20450;-60
2023/01/07 09:26:24;;;;;;;2.40;1.70;;;12.40;96.40;;;;;;5134241;28;20828;-60
2023/01/07 09:28:50;;;;;;;1.87;1.67;;;12.40;96.30;;;;;;5134158;28;20461;-60
2023/01/07 09:31:17;;;;;;;2.40;1.90;;;12.30;96.30;;;;;;5134074;28;20505;-60
2023/01/07 09:33:44;;;;;;;2.60;2.07;;;12.30;96.30;;;;;;5134120;28;20449;-60
2023/01/07 09:36:12;;;;;;;3.37;2.10;;;12.40;96.40;;;;;;5134059;28;20446;-60
2023/01/07 09:38:38;;;;;;;2.33;2.13;;;12.40;96.30;;;;;;5133707;28;20915;-60
2023/01/07 09:41:14;;;;;;;2.90;2.27;;;12.40;96.10;;;;;;5133651;28;20548;-60
2023/01/07 09:43:45;;;;;;;4.50;2.10;;;12.50;95.80;;;;;;5134193;28;20438;-60
2023/01/07 09:46:12;;;;;;;3.10;2.40;;;12.50;95.90;;;;;;5131966;28;20507;-60
2023/01/07 09:48:43;;;;;;;2.53;2.33;;;12.50;95.70;;;;;;5115401;28;20453;-60
2023/01/07 09:51:19;;;;;;;1.20;1.10;;;12.60;95.70;;;;;;5113240;28;20493;-60
2023/01/07 09:53:48;;;;;;;1.33;1.23;;;12.60;95.40;;;;;;5113515;28;20435;-60
2023/01/07 09:56:23;;;;;;;1.40;1.30;;;12.70;95.20;;;;;;5113378;28;20836;-60
2023/01/07 09:58:50;;;;;;;1.30;1.00;;;12.70;95.10;;;;;;5113759;28;20762;-60
2023/01/07 10:01:27;;;;;;;1.80;1.23;;;12.70;95.00;;;;;;5113454;28;20474;-60
2023/01/07 10:04:05;;;;;;;1.50;1.40;;;12.70;94.80;;;;;;5113842;28;20906;-60
2023/01/07 10:06:41;;;;;;;1.70;1.33;;;12.80;94.40;;;;;;5113393;28;20454;-60
2023/01/07 10:09:17;;;;;;;1.83;0.93;;;12.80;94.30;;;;;;5113372;28;20921;-60
2023/01/07 10:11:54;;;;;;;1.53;1.30;;;12.90;94.30;;;;;;5113593;28;20485;-60
2023/01/07 10:14:43;;;;;;;1.50;0.93;;;12.90;94.30;;;;;;5116981;28;20435;-60
2023/01/07 10:17:20;;;;;;;2.60;1.20;;;12.90;94.00;;;;;;5117367;28;20438;-60
2023/01/07 10:19:55;;;;;;;3.03;1.57;;;13.00;93.80;;;;;;5117853;28;20844;-60
2023/01/07 10:22:29;;;;;;;1.10;1.00;;;13.10;93.70;;;;;;5116801;28;20836;-60
2023/01/07 10:25:01;;;;;;;1.37;1.20;;;13.10;93.40;;;;;;5116662;28;20930;-60
2023/01/07 10:27:32;;;;;;;2.30;1.50;;;13.10;93.50;;;;;;5117070;28;20424;-60
2023/01/07 10:30:02;;;;;;;1.30;1.03;;;13.20;92.90;;;;;;5116922;28;20446;-60
2023/01/07 10:32:32;;;;;;;1.53;0.90;;;13.20;92.50;;;;;;5116645;28;20896;-60
2023/01/07 10:35:00;;;;;;;1.60;1.00;;;13.30;92.50;;;;;;5117661;28;20497;-61
2023/01/07 10:37:30;;;;;;;3.17;1.30;;;13.30;92.20;;;;;;5117131;28;20477;-60
2023/01/07 10:40:16;;;;;;;1.97;1.57;;;13.30;91.90;;;;;;5116597;28;20466;-60
2023/01/07 10:42:50;;;;;;;2.03;1.20;;;13.30;91.80;;;;;;5116862;28;20474;-60
2023/01/07 10:45:30;;;;;;;1.30;1.20;;;13.30;92.20;;;;;;5116598;28;20447;-60
2023/01/07 10:48:23;;;;;;;2.53;1.67;;;13.40;91.50;;;;;;5116321;28;20802;-60
2023/01/07 10:51:02;;;;;;;1.83;1.60;;;13.40;91.50;;;;;;5116902;28;20447;-60
2023/01/07 10:53:43;;;;;;;2.60;1.43;;;13.40;91.30;;;;;;5116411;28;20446;-60
2023/01/07 10:56:21;;;;;;;1.50;1.40;;;13.40;91.60;;;;;;5116368;28;20435;-60
2023/01/07 10:58:49;;;;;;;1.70;1.13;;;13.40;91.50;;;;;;5116234;28;20843;-60
2023/01/07 11:01:23;;;;;;;2.60;2.40;;;13.40;91.50;;;;;;5124667;27;20466;-60
2023/01/07 11:03:51;;;;;;;2.67;1.53;;;13.30;91.00;;;;;;5136805;27;20427;-60
2023/01/07 11:06:24;;;;;;;1.80;1.47;;;13.30;91.10;;;;;;5132676;27;20450;-60
2023/01/07 11:08:52;;;;;;;2.60;1.73;;;13.20;91.10;;;;;;5116155;28;20435;-60
2023/01/07 11:11:21;;;;;;;3.73;2.17;;;13.30;90.60;;;;;;5116042;28;20497;-60
2023/01/07 11:13:57;;;;;;;3.83;1.67;;;13.30;90.80;;;;;;5115994;28;20427;-60
2023/01/07 11:16:27;;;;;;;2.60;1.77;;;13.30;91.00;;;;;;5116028;28;20431;-60
2023/01/07 11:18:57;;;;;;;1.40;1.30;;;13.30;90.70;;;;;;5116034;28;20431;-60
2023/01/07 11:21:36;;;;;;;1.77;1.67;;;13.40;91.00;;;;;;5115812;28;20463;-60
2023/01/07 11:24:33;;;;;;;2.37;1.57;;;13.40;90.40;;;;;;5115579;28;20435;-60
2023/01/07 11:27:02;;;;;;;1.90;1.80;;;13.50;90.50;;;;;;5115872;28;20453;-60
2023/01/07 11:29:36;;;;;;;2.40;1.83;;;13.60;90.50;;;;;;5115806;28;20458;-60
2023/01/07 11:32:04;;;;;;;2.23;1.20;;;13.80;90.10;;;;;;5115989;28;20605;-60
2023/01/07 11:34:34;;;;;;;2.60;1.60;;;13.70;89.40;;;;;;5116775;28;20463;-60
2023/01/07 11:37:01;;;;;;;1.50;1.40;;;13.80;89.90;;;;;;5115941;28;20447;-60
2023/01/07 11:39:32;;;;;;;1.53;1.13;;;13.80;89.10;;;;;;5115321;28;20454;-60
2023/01/07 11:42:37;;;;;;;1.33;1.23;;;13.90;88.30;;;;;;5115296;28;20794;-60
2023/01/07 11:44:47;;;;;;;2.93;1.27;;;13.90;86.50;;;;;;5114978;28;20501;-60
2023/01/07 11:47:15;;;;;;;1.20;1.10;;;13.90;84.30;;;;;;5115104;28;20446;-60
2023/01/07 11:49:44;;;;;;;1.07;0.97;;;13.90;83.10;;;;;;5115301;28;20450;-60
2023/01/07 11:52:17;;;;;;;2.57;1.07;;;13.90;82.40;;;;;;5115033;28;20486;-60
2023/01/07 11:54:50;;;;;;;1.00;1.00;;;13.90;81.90;;;;;;5115111;28;20446;-60
2023/01/07 11:57:23;;;;;;;1.20;1.10;;;14.00;80.70;;;;;;5115256;28;20873;-60
2023/01/07 12:00:13;;;;;;;1.50;1.37;;;14.20;81.00;;;;;;5114905;28;20454;-60
2023/01/07 12:02:39;;;;;;;1.00;0.83;;;14.50;80.40;;;;;;5114780;28;20455;-60
2023/01/07 12:05:17;;;;;;;1.67;1.47;;;14.90;79.30;;;;;;5114869;28;20451;-60
2023/01/07 12:07:46;;;;;;;1.87;0.80;;;15.30;75.60;;;;;;5114472;28;20798;-60
2023/01/07 12:10:27;;;;;;;0.93;0.73;;;15.60;73.40;;;;;;5114776;28;20447;-60
2023/01/07 12:12:54;;;;;;;1.07;0.97;;;16.00;72.80;;;;;;5114551;28;20893;-60
2023/01/07 12:15:25;;;;;;;0.90;0.70;;;16.20;70.20;;;;;;5114958;28;20436;-61
2023/01/07 12:18:21;;;;;;;1.33;1.17;;;16.30;67.00;;;;;;5114846;28;20534;-61
2023/01/07 12:21:09;;;;;;;3.80;0.73;;;16.40;66.90;;;;;;5114946;28;20427;-61
2023/01/07 12:23:45;;;;;;;4.97;0.90;;;16.60;67.00;;;;;;5114671;28;20435;-60
2023/01/07 12:26:17;;;;;;;1.13;1.07;;;16.70;66.50;;;;;;5114681;28;20438;-61
2023/01/07 12:28:56;;;;;;;0.87;0.87;;;16.90;65.70;;;;;;5114556;28;20446;-60
2023/01/07 12:31:34;;;;;;;0.80;0.70;;;17.10;63.80;;;;;;5113894;28;21001;-60
2023/01/07 12:34:07;;;;;;;0.80;0.80;;;17.20;63.60;;;;;;5114510;28;20442;-60
2023/01/07 12:36:40;;;;;;;1.00;0.90;;;17.10;62.30;;;;;;5113753;28;20427;-60
2023/01/07 12:39:12;;;;;;;0.87;0.87;;;17.00;61.30;;;;;;5114172;28;20449;-61
2023/01/07 12:41:44;;;;;;;1.10;1.00;;;16.90;61.90;;;;;;5114213;28;20459;-60
2023/01/07 12:44:17;;;;;;;1.00;0.90;;;17.00;61.90;;;;;;5113972;28;20907;-60
2023/01/07 12:46:49;;;;;;;1.00;0.90;;;17.10;62.50;;;;;;5114242;28;20431;-60
2023/01/07 12:49:22;;;;;;;1.10;1.00;;;17.20;61.30;;;;;;5114377;28;20434;-60
2023/01/07 12:51:54;;;;;;;1.13;1.03;;;17.40;61.30;;;;;;5113948;28;20556;-60
2023/01/07 12:54:33;;;;;;;1.10;1.00;;;17.50;60.20;;;;;;5114029;28;20458;-60
2023/01/07 12:57:09;;;;;;;1.67;1.10;;;17.50;59.90;;;;;;5113600;28;20911;-61
2023/01/07 12:59:40;;;;;;;1.67;1.10;;;17.40;60.00;;;;;;5113949;28;20519;-60
2023/01/07 13:02:19;;;;;;;2.20;1.43;;;17.10;60.20;;;;;;5113858;28;20528;-60